createdAt,value
2022-12-11T00:01:18.504Z,22.90
2022-12-11T00:03:46.614Z,20.98
2022-12-11T00:06:16.487Z,35.85
2022-12-11T00:08:44.167Z,44.22
2022-12-11T00:11:17.129Z,31.92
2022-12-11T00:13:44.766Z,25.10
2022-12-11T00:16:12.253Z,39.72
2022-12-11T00:18:39.843Z,52.35
2022-12-11T00:21:08.938Z,39.92
2022-12-11T00:23:36.781Z,49.40
2022-12-11T00:26:09.680Z,48.72
2022-12-11T00:28:36.862Z,36.78
2022-12-11T00:31:09.269Z,19.13
2022-12-11T00:33:36.254Z,29.70
2022-12-11T00:36:04.059Z,25.63
2022-12-11T00:38:31.322Z,32.45
2022-12-11T00:40:59.649Z,17.95
2022-12-11T00:43:26.619Z,20.25
2022-12-11T00:45:53.720Z,36.72
2022-12-11T00:50:47.611Z,37.22
2022-12-11T00:55:42.957Z,28.55
2022-12-11T00:58:11.141Z,27.92
2022-12-11T01:00:39.516Z,30.10
2022-12-11T01:03:07.158Z,30.63
2022-12-11T01:05:34.539Z,34.40
2022-12-11T01:08:02.108Z,36.40
2022-12-11T01:10:29.264Z,34.13
2022-12-11T01:13:05.537Z,42.55
2022-12-11T01:15:41.356Z,25.95
2022-12-11T01:18:13.361Z,31.73
2022-12-11T01:20:42.721Z,23.75
2022-12-11T01:23:13.216Z,21.98
2022-12-11T01:25:41.456Z,21.63
2022-12-11T01:28:09.673Z,22.58
2022-12-11T01:30:37.213Z,42.78
2022-12-11T01:33:04.853Z,33.83
2022-12-11T01:35:32.231Z,37.90
2022-12-11T01:37:59.561Z,54.17
2022-12-11T01:40:26.584Z,55.10
2022-12-11T01:42:53.698Z,43.45
2022-12-11T01:45:34.659Z,43.38
2022-12-11T01:48:14.376Z,36.90
2022-12-11T01:50:48.768Z,36.00
2022-12-11T01:53:21.440Z,28.50
2022-12-11T01:55:50.873Z,27.58
2022-12-11T01:58:20.625Z,31.73
2022-12-11T02:00:47.925Z,49.58
2022-12-11T02:03:14.937Z,39.83
2022-12-11T02:05:42.223Z,45.50
2022-12-11T02:08:09.786Z,56.22
2022-12-11T02:11:04.892Z,29.83
2022-12-11T02:13:57.461Z,43.00
2022-12-11T02:16:40.522Z,36.17
2022-12-11T02:19:57.878Z,38.22
2022-12-11T02:22:51.399Z,45.55
2022-12-11T02:25:31.524Z,52.08
2022-12-11T02:28:20.108Z,32.67
2022-12-11T02:30:56.052Z,44.97
2022-12-11T02:33:34.728Z,42.80
2022-12-11T02:36:05.073Z,43.45
2022-12-11T02:38:36.273Z,44.22
2022-12-11T02:41:05.353Z,56.17
2022-12-11T02:43:34.174Z,48.53
2022-12-11T02:46:04.859Z,43.20
2022-12-11T02:48:33.949Z,46.92
2022-12-11T02:51:03.416Z,63.25
2022-12-11T02:53:33.322Z,48.55
2022-12-11T02:56:21.290Z,50.35
2022-12-11T02:58:58.183Z,41.45
2022-12-11T03:01:26.437Z,52.42
2022-12-11T03:03:54.977Z,37.33
2022-12-11T03:06:27.895Z,35.83
2022-12-11T03:08:55.009Z,41.75
2022-12-11T03:11:31.535Z,33.75
2022-12-11T03:14:05.265Z,43.05
2022-12-11T03:16:40.837Z,56.90
2022-12-11T03:19:23.804Z,45.97
2022-12-11T03:21:59.885Z,57.70
2022-12-11T03:24:33.320Z,71.97
2022-12-11T03:27:11.145Z,47.10
2022-12-11T03:29:48.353Z,45.08
2022-12-11T03:32:23.283Z,62.25
2022-12-11T03:35:04.192Z,40.35
2022-12-11T03:37:37.743Z,48.90
2022-12-11T03:40:16.699Z,59.13
2022-12-11T03:42:47.296Z,59.50
2022-12-11T03:45:21.316Z,45.83
2022-12-11T03:48:00.328Z,42.90
2022-12-11T03:53:12.477Z,34.08
2022-12-11T03:55:50.089Z,32.95
2022-12-11T03:58:18.211Z,22.75
2022-12-11T04:00:45.644Z,33.00
2022-12-11T04:03:18.361Z,41.75
2022-12-11T04:08:35.775Z,32.65
2022-12-11T04:11:23.615Z,43.50
2022-12-11T04:14:10.947Z,27.85
2022-12-11T04:22:39.763Z,58.42
2022-12-11T04:30:38.419Z,17.85
2022-12-11T04:36:02.627Z,38.63
2022-12-11T04:43:58.244Z,46.90
2022-12-11T04:46:27.735Z,46.90
2022-12-11T04:51:49.103Z,33.97
2022-12-11T05:05:12.783Z,30.58
2022-12-11T05:10:22.493Z,41.47
2022-12-11T05:42:36.481Z,40.00
2022-12-11T05:50:33.264Z,52.78
2022-12-11T05:53:05.062Z,19.92
2022-12-11T05:55:40.487Z,21.95
2022-12-11T06:03:30.608Z,19.35
2022-12-11T06:08:44.028Z,16.48
2022-12-11T06:11:23.589Z,14.80
2022-12-11T06:13:51.918Z,16.17
2022-12-11T06:16:21.135Z,17.70
2022-12-11T06:24:28.935Z,18.23
2022-12-11T06:48:54.456Z,16.80
2022-12-11T09:15:36.319Z,20.40
2022-12-11T09:29:09.816Z,25.17
2022-12-11T09:39:46.231Z,24.48
2022-12-11T09:50:51.284Z,33.03
2022-12-11T09:59:27.296Z,25.88
2022-12-11T10:05:36.621Z,24.10
2022-12-11T10:08:35.446Z,22.35
2022-12-11T10:26:18.045Z,26.23
2022-12-11T10:31:58.865Z,29.48
2022-12-11T10:34:58.632Z,27.13
2022-12-11T10:40:12.597Z,34.17
2022-12-11T10:54:11.919Z,22.83
2022-12-11T11:11:26.345Z,23.02
2022-12-11T11:22:33.297Z,23.67
2022-12-11T11:28:04.685Z,23.38
2022-12-11T11:37:01.169Z,21.98
2022-12-11T11:39:42.096Z,16.92
2022-12-11T11:42:18.280Z,23.48
2022-12-11T11:44:56.081Z,17.35
2022-12-11T11:50:19.633Z,17.20
2022-12-11T11:52:58.311Z,11.88
2022-12-11T11:55:43.622Z,14.00
2022-12-11T11:58:25.308Z,15.43
2022-12-11T12:03:49.448Z,14.20
2022-12-11T12:16:29.287Z,9.73
2022-12-11T12:19:35.043Z,13.38
2022-12-11T12:25:26.163Z,9.98
2022-12-11T12:34:04.497Z,14.05
2022-12-11T12:55:38.117Z,13.77
2022-12-11T12:58:28.926Z,19.73
2022-12-11T13:12:50.330Z,12.60
2022-12-11T13:24:19.959Z,17.73
2022-12-11T13:29:39.260Z,15.15
2022-12-11T13:35:05.440Z,19.20
2022-12-11T13:40:44.653Z,18.02
2022-12-11T13:46:25.950Z,19.45
2022-12-11T14:15:28.736Z,16.05
2022-12-11T14:17:57.263Z,19.45
2022-12-11T14:23:20.490Z,19.88
2022-12-11T14:32:47.466Z,20.33
2022-12-11T17:08:27.590Z,8.98
2022-12-11T17:19:34.227Z,8.48
2022-12-11T17:22:02.379Z,8.98
2022-12-11T17:30:00.037Z,9.07
2022-12-11T18:09:37.545Z,8.25
2022-12-11T18:23:03.078Z,6.70
2022-12-11T18:25:32.286Z,8.13
2022-12-11T18:28:26.290Z,7.93
2022-12-11T18:33:39.710Z,7.03
2022-12-11T18:41:37.705Z,6.38
2022-12-11T18:49:39.105Z,5.85
2022-12-11T18:52:06.760Z,8.05
2022-12-11T18:54:34.818Z,5.35
2022-12-11T18:57:03.208Z,5.15
2022-12-11T18:59:35.001Z,6.78
2022-12-11T19:02:03.546Z,6.60
2022-12-11T19:09:58.406Z,6.55
2022-12-11T19:12:26.449Z,5.90
2022-12-11T19:14:55.849Z,6.47
2022-12-11T19:17:32.374Z,6.22
2022-12-11T19:20:05.230Z,6.57
2022-12-11T19:25:31.175Z,6.22
2022-12-11T19:33:36.456Z,5.88
2022-12-11T19:36:12.595Z,6.00
2022-12-11T19:38:49.256Z,5.93
2022-12-11T19:44:08.895Z,6.82
2022-12-11T19:46:37.395Z,6.93
2022-12-11T19:49:05.245Z,7.18
2022-12-11T19:51:39.138Z,6.13
2022-12-11T19:54:08.687Z,7.18
2022-12-11T19:56:38.470Z,7.18
2022-12-11T19:59:08.677Z,7.85
2022-12-11T20:01:42.117Z,7.70
2022-12-11T20:04:13.718Z,8.05
2022-12-11T20:06:49.328Z,8.70
2022-12-11T20:09:18.309Z,9.20
2022-12-11T20:11:49.919Z,9.38
2022-12-11T20:14:24.820Z,9.63
2022-12-11T20:17:14.623Z,10.07
2022-12-11T20:19:47.654Z,9.73
2022-12-11T20:22:19.526Z,10.68
2022-12-11T20:24:46.957Z,10.70
2022-12-11T20:29:55.555Z,11.80
2022-12-11T20:32:23.195Z,12.13
2022-12-11T20:34:52.558Z,12.38
2022-12-11T20:37:21.051Z,13.82
2022-12-11T20:39:49.583Z,13.02
2022-12-11T20:42:16.777Z,14.85
2022-12-11T20:47:22.072Z,15.43
2022-12-11T20:49:52.613Z,17.50
2022-12-11T20:52:22.936Z,12.63
2022-12-11T20:54:50.578Z,18.48
2022-12-11T20:57:19.161Z,18.48
2022-12-11T20:59:47.844Z,18.98
2022-12-11T21:02:16.091Z,17.42
2022-12-11T21:04:45.460Z,17.98
2022-12-11T21:07:12.915Z,18.48
2022-12-11T21:09:40.558Z,21.10
2022-12-11T21:12:08.323Z,19.55
2022-12-11T21:14:36.279Z,19.63
2022-12-11T21:17:04.825Z,25.85
2022-12-11T21:19:33.406Z,24.73
2022-12-11T21:22:00.797Z,22.60
2022-12-11T21:24:30.144Z,26.08
2022-12-11T21:27:00.274Z,29.02
2022-12-11T21:29:36.465Z,28.00
2022-12-11T21:32:04.611Z,21.17
2022-12-11T21:34:36.727Z,24.70
2022-12-11T21:37:04.163Z,19.58
2022-12-11T21:39:41.258Z,23.35
2022-12-11T21:42:08.450Z,26.85
2022-12-11T21:47:29.499Z,27.27
2022-12-11T21:52:48.487Z,23.67
2022-12-11T21:57:58.603Z,25.40
2022-12-11T22:03:07.797Z,26.55
2022-12-11T22:05:35.799Z,28.98
2022-12-11T22:08:03.528Z,33.72
2022-12-11T22:13:13.138Z,29.80
2022-12-11T22:15:41.419Z,33.05
2022-12-11T22:20:51.171Z,15.45
2022-12-11T22:23:18.316Z,28.60
2022-12-11T22:33:39.153Z,20.35
2022-12-11T22:36:07.145Z,24.52
2022-12-11T22:38:35.585Z,26.17
2022-12-11T22:41:17.549Z,35.50
2022-12-11T22:43:49.245Z,36.00
2022-12-11T22:48:59.974Z,34.95
2022-12-11T22:51:28.557Z,32.78
2022-12-11T22:53:55.865Z,30.88
2022-12-11T22:58:51.232Z,16.02
2022-12-11T23:01:21.897Z,32.72
2022-12-11T23:03:50.049Z,28.13
2022-12-11T23:06:21.280Z,32.55
2022-12-11T23:08:49.620Z,20.80
2022-12-11T23:11:30.735Z,26.77
2022-12-11T23:13:58.315Z,26.05
2022-12-11T23:19:08.980Z,23.48
2022-12-11T23:21:38.740Z,24.27
2022-12-11T23:24:07.662Z,23.33
2022-12-11T23:26:44.368Z,19.27
2022-12-11T23:34:35.827Z,27.65
2022-12-11T23:37:03.101Z,23.48
2022-12-11T23:39:33.182Z,29.95
2022-12-11T23:42:00.353Z,17.10
2022-12-11T23:46:59.386Z,23.67
2022-12-11T23:49:27.845Z,18.55
2022-12-11T23:51:55.044Z,23.88
2022-12-11T23:54:22.839Z,15.50
2022-12-11T23:56:49.956Z,17.60
